createdAt,value
2018-05-08T00:00:58.352Z,0
2018-05-08T00:01:58.338Z,0
2018-05-08T00:02:58.418Z,0
2018-05-08T00:03:58.354Z,0
2018-05-08T00:04:58.364Z,0
2018-05-08T00:05:58.418Z,0
2018-05-08T00:06:58.290Z,0
2018-05-08T00:07:58.290Z,0
2018-05-08T00:08:58.292Z,0
2018-05-08T00:09:58.360Z,0
2018-05-08T00:10:58.349Z,0
2018-05-08T00:11:58.289Z,0
2018-05-08T00:12:58.349Z,0
2018-05-08T00:13:58.454Z,0
2018-05-08T00:14:58.425Z,0
2018-05-08T00:15:58.313Z,0
2018-05-08T00:16:58.393Z,0
2018-05-08T00:17:58.357Z,0
2018-05-08T00:18:58.420Z,0
2018-05-08T00:19:58.358Z,0
2018-05-08T00:20:58.333Z,0
2018-05-08T00:21:58.430Z,0
2018-05-08T00:22:58.395Z,0
2018-05-08T00:23:58.472Z,0
2018-05-08T00:24:58.400Z,0
2018-05-08T00:25:58.393Z,0
2018-05-08T00:26:58.315Z,0
2018-05-08T00:27:58.365Z,0
2018-05-08T00:28:58.433Z,0
2018-05-08T00:29:58.321Z,0
2018-05-08T00:30:58.364Z,0
2018-05-08T00:31:58.376Z,0
2018-05-08T00:32:58.442Z,0
2018-05-08T00:33:58.383Z,0
2018-05-08T00:34:58.397Z,0
2018-05-08T00:35:58.429Z,0
2018-05-08T00:36:58.462Z,0
2018-05-08T00:37:58.406Z,0
2018-05-08T00:38:58.368Z,0
2018-05-08T00:39:58.403Z,0
2018-05-08T00:40:58.408Z,0
2018-05-08T00:41:58.386Z,0
2018-05-08T00:42:58.376Z,0
2018-05-08T00:43:58.425Z,0
2018-05-08T00:44:58.384Z,0
2018-05-08T00:45:58.308Z,0
2018-05-08T00:46:58.405Z,0
2018-05-08T00:47:58.406Z,0
2018-05-08T00:48:58.388Z,0
2018-05-08T00:49:58.408Z,0
2018-05-08T00:50:58.403Z,0
2018-05-08T00:51:58.335Z,0
2018-05-08T00:52:58.408Z,0
2018-05-08T00:53:58.321Z,0
2018-05-08T00:54:58.343Z,0
2018-05-08T00:55:58.334Z,0
2018-05-08T00:56:58.404Z,0
2018-05-08T00:57:58.299Z,0
2018-05-08T00:58:58.322Z,0
2018-05-08T00:59:58.310Z,0
2018-05-08T01:00:58.353Z,0
2018-05-08T01:01:58.422Z,0
2018-05-08T01:02:58.358Z,0
2018-05-08T01:03:58.418Z,0
2018-05-08T01:04:58.368Z,0
2018-05-08T01:05:58.363Z,0
2018-05-08T01:06:58.422Z,0
2018-05-08T01:07:58.431Z,0
2018-05-08T01:08:58.354Z,0
2018-05-08T01:09:58.425Z,0
2018-05-08T01:10:58.405Z,0
2018-05-08T01:11:58.429Z,0
2018-05-08T01:12:58.426Z,0
2018-05-08T01:13:58.410Z,0
2018-05-08T01:14:58.398Z,0
2018-05-08T01:15:58.392Z,0
2018-05-08T01:16:58.456Z,0
2018-05-08T01:17:58.408Z,0
2018-05-08T01:18:58.433Z,0
2018-05-08T01:19:58.468Z,0
2018-05-08T01:20:58.334Z,0
2018-05-08T01:21:58.528Z,0
2018-05-08T01:22:58.355Z,0
2018-05-08T01:23:58.449Z,0
2018-05-08T01:24:58.480Z,0
2018-05-08T01:25:58.468Z,0
2018-05-08T01:26:58.397Z,0
2018-05-08T01:27:58.378Z,0
2018-05-08T01:28:58.339Z,0
2018-05-08T01:29:58.413Z,0
2018-05-08T01:30:58.446Z,0
2018-05-08T01:31:58.439Z,0
2018-05-08T01:32:58.370Z,0
2018-05-08T01:33:58.379Z,0
2018-05-08T01:34:58.441Z,0
2018-05-08T01:35:58.381Z,0
2018-05-08T01:36:58.441Z,0
2018-05-08T01:37:58.467Z,0
2018-05-08T01:38:58.380Z,0
2018-05-08T01:39:58.380Z,0
2018-05-08T01:40:58.362Z,0
2018-05-08T01:41:58.433Z,0
2018-05-08T01:42:58.411Z,0
2018-05-08T01:43:58.535Z,0
2018-05-08T01:44:58.346Z,0
2018-05-08T01:45:58.477Z,0
2018-05-08T01:46:58.423Z,0
2018-05-08T01:47:58.476Z,0
2018-05-08T01:48:58.450Z,0
2018-05-08T01:49:58.426Z,0
2018-05-08T01:50:58.451Z,0
2018-05-08T01:51:58.387Z,0
2018-05-08T01:52:58.466Z,0
2018-05-08T01:53:58.455Z,0
2018-05-08T01:54:58.383Z,0
2018-05-08T01:55:58.459Z,0
2018-05-08T01:56:58.390Z,0
2018-05-08T01:57:58.457Z,0
2018-05-08T01:58:58.386Z,0
2018-05-08T01:59:58.563Z,0
2018-05-08T02:00:58.390Z,0
2018-05-08T02:01:58.460Z,0
2018-05-08T02:02:58.467Z,0
2018-05-08T02:03:58.458Z,0
2018-05-08T02:04:58.396Z,0
2018-05-08T02:05:58.398Z,0
2018-05-08T02:06:58.397Z,0
2018-05-08T02:07:58.399Z,0
2018-05-08T02:08:58.354Z,0
2018-05-08T02:09:58.462Z,0
2018-05-08T02:10:58.421Z,0
2018-05-08T02:11:58.488Z,0
2018-05-08T02:12:58.387Z,0
2018-05-08T02:13:58.504Z,0
2018-05-08T02:14:58.482Z,0
2018-05-08T02:15:58.443Z,0
2018-05-08T02:16:58.512Z,0
2018-05-08T02:17:58.466Z,0
2018-05-08T02:18:58.451Z,0
2018-05-08T02:19:58.433Z,0
2018-05-08T02:20:58.370Z,0
2018-05-08T02:21:58.337Z,0
2018-05-08T02:22:58.399Z,0
2018-05-08T02:23:58.406Z,0
2018-05-08T02:24:58.403Z,0
2018-05-08T02:25:58.477Z,0
2018-05-08T02:26:58.466Z,0
2018-05-08T02:27:58.342Z,0
2018-05-08T02:28:58.429Z,0
2018-05-08T02:29:58.404Z,0
2018-05-08T02:30:58.523Z,0
2018-05-08T02:31:58.494Z,0
2018-05-08T02:32:58.459Z,0
2018-05-08T02:33:58.457Z,0
2018-05-08T02:34:58.423Z,0
2018-05-08T02:35:58.437Z,0
2018-05-08T02:36:58.486Z,0
2018-05-08T02:37:58.511Z,0
2018-05-08T02:38:58.456Z,0
2018-05-08T02:39:58.401Z,0
2018-05-08T02:40:58.385Z,0
2018-05-08T02:41:58.387Z,0
2018-05-08T02:42:58.483Z,0
2018-05-08T02:43:58.488Z,0
2018-05-08T02:44:58.420Z,0
2018-05-08T02:45:58.467Z,0
2018-05-08T02:46:58.454Z,0
2018-05-08T02:47:58.456Z,0
2018-05-08T02:48:58.458Z,0
2018-05-08T02:49:58.457Z,0
2018-05-08T02:50:58.393Z,0
2018-05-08T02:51:58.392Z,0
2018-05-08T02:52:58.515Z,0
2018-05-08T02:53:58.463Z,0
2018-05-08T02:54:58.432Z,0
2018-05-08T02:55:58.393Z,4
2018-05-08T02:56:58.498Z,4
2018-05-08T02:57:58.530Z,4
2018-05-08T02:58:58.463Z,0
2018-05-08T02:59:58.402Z,0
2018-05-08T03:00:58.479Z,4
2018-05-08T03:01:58.529Z,4
2018-05-08T03:02:58.502Z,4
2018-05-08T03:03:58.436Z,4
2018-05-08T03:04:58.536Z,8
2018-05-08T03:05:58.500Z,8
2018-05-08T03:06:58.538Z,8
2018-05-08T03:07:58.539Z,8
2018-05-08T03:08:58.474Z,12
2018-05-08T03:09:58.476Z,16
2018-05-08T03:10:58.444Z,20
2018-05-08T03:11:58.503Z,20
2018-05-08T03:12:58.532Z,28
2018-05-08T03:13:58.507Z,32
2018-05-08T03:14:58.427Z,36
2018-05-08T03:15:58.445Z,44
2018-05-08T03:16:58.424Z,48
2018-05-08T03:17:58.551Z,56
2018-05-08T03:18:58.512Z,64
2018-05-08T03:19:58.447Z,72
2018-05-08T03:20:58.447Z,88
2018-05-08T03:21:58.475Z,96
2018-05-08T03:22:58.468Z,112
2018-05-08T03:23:58.515Z,124
2018-05-08T03:24:58.531Z,148
2018-05-08T03:25:58.543Z,164
2018-05-08T03:26:58.548Z,184
2018-05-08T03:27:58.546Z,208
2018-05-08T03:28:58.544Z,236
2018-05-08T03:29:58.534Z,264
2018-05-08T03:30:58.514Z,296
2018-05-08T03:31:58.449Z,332
2018-05-08T03:32:58.457Z,368
2018-05-08T03:33:58.515Z,404
2018-05-08T03:34:58.454Z,448
2018-05-08T03:35:58.515Z,492
2018-05-08T03:36:58.518Z,536
2018-05-08T03:37:58.518Z,608
2018-05-08T03:38:58.518Z,668
2018-05-08T03:39:58.459Z,724
2018-05-08T03:40:58.480Z,788
2018-05-08T03:41:58.479Z,852
2018-05-08T03:42:58.471Z,924
2018-05-08T03:43:58.507Z,992
2018-05-08T03:44:58.459Z,1068
2018-05-08T03:45:58.479Z,1148
2018-05-08T03:46:58.518Z,1224
2018-05-08T03:47:58.414Z,1308
2018-05-08T03:48:58.391Z,1396
2018-05-08T03:49:58.516Z,1484
2018-05-08T03:50:58.527Z,1572
2018-05-08T03:51:58.527Z,1668
2018-05-08T03:52:58.448Z,1760
2018-05-08T03:53:58.507Z,1856
2018-05-08T03:54:58.497Z,1956
2018-05-08T03:55:58.494Z,2048
2018-05-08T03:56:58.504Z,2148
2018-05-08T03:57:58.538Z,2248
2018-05-08T03:58:58.528Z,2352
2018-05-08T03:59:58.550Z,2448
2018-05-08T04:00:58.532Z,2552
2018-05-08T04:01:58.493Z,2652
2018-05-08T04:02:58.537Z,2756
2018-05-08T04:03:58.472Z,2856
2018-05-08T04:04:58.573Z,2956
2018-05-08T04:05:58.534Z,3060
2018-05-08T04:06:58.540Z,3164
2018-05-08T04:07:58.469Z,3264
2018-05-08T04:08:58.539Z,3368
2018-05-08T04:09:58.538Z,3468
2018-05-08T04:10:58.523Z,3568
2018-05-08T04:11:58.448Z,3676
2018-05-08T04:12:58.446Z,3784
2018-05-08T04:13:58.405Z,3892
2018-05-08T04:14:58.567Z,3996
2018-05-08T04:15:58.431Z,4096
2018-05-08T04:16:58.462Z,4188
2018-05-08T04:17:58.448Z,4292
2018-05-08T04:18:58.464Z,4384
2018-05-08T04:19:58.535Z,4484
2018-05-08T04:20:58.536Z,4580
2018-05-08T04:21:58.574Z,4672
2018-05-08T04:22:58.506Z,4764
2018-05-08T04:23:58.569Z,4852
2018-05-08T04:24:58.516Z,4940
2018-05-08T04:25:58.581Z,5028
2018-05-08T04:26:58.583Z,5112
2018-05-08T04:27:58.475Z,5204
2018-05-08T04:28:58.522Z,5296
2018-05-08T04:29:58.474Z,5396
2018-05-08T04:30:58.456Z,5728
2018-05-08T04:31:58.546Z,5812
2018-05-08T04:32:58.544Z,5900
2018-05-08T04:33:58.537Z,5992
2018-05-08T04:34:58.456Z,6084
2018-05-08T04:35:58.548Z,6180
2018-05-08T04:36:58.439Z,6228
2018-05-08T04:37:58.461Z,6320
2018-05-08T04:38:58.486Z,6408
2018-05-08T04:39:58.543Z,6496
2018-05-08T04:40:58.512Z,6576
2018-05-08T04:41:58.514Z,6652
2018-05-08T04:42:58.577Z,6728
2018-05-08T04:43:58.495Z,6804
2018-05-08T04:44:58.514Z,6880
2018-05-08T04:45:58.533Z,6952
2018-05-08T04:46:58.591Z,7024
2018-05-08T04:47:58.562Z,7096
2018-05-08T04:48:58.591Z,7176
2018-05-08T04:49:58.582Z,7256
2018-05-08T04:50:58.595Z,7332
2018-05-08T04:51:58.602Z,7408
2018-05-08T04:52:58.589Z,7476
2018-05-08T04:53:58.533Z,7532
2018-05-08T04:54:58.585Z,7616
2018-05-08T04:55:58.663Z,7684
2018-05-08T04:56:58.566Z,7768
2018-05-08T04:57:58.525Z,7844
2018-05-08T04:58:58.568Z,7920
2018-05-08T04:59:58.535Z,7996
2018-05-08T05:00:58.590Z,8064
2018-05-08T05:01:58.567Z,8136
2018-05-08T05:02:58.468Z,8200
2018-05-08T05:03:58.479Z,8276
2018-05-08T05:04:58.574Z,8356
2018-05-08T05:05:58.527Z,8420
2018-05-08T05:06:58.564Z,8488
2018-05-08T05:07:58.605Z,8556
2018-05-08T05:08:58.483Z,8620
2018-05-08T05:09:58.542Z,8684
2018-05-08T05:10:58.620Z,8748
2018-05-08T05:11:58.484Z,8812
2018-05-08T05:12:58.578Z,8868
2018-05-08T05:13:58.515Z,8932
2018-05-08T05:14:58.551Z,9000
2018-05-08T05:15:58.611Z,9056
2018-05-08T05:16:58.551Z,9116
2018-05-08T05:17:58.502Z,9168
2018-05-08T05:18:58.553Z,9232
2018-05-08T05:19:58.534Z,9292
2018-05-08T05:20:58.560Z,9352
2018-05-08T05:21:58.626Z,9404
2018-05-08T05:22:58.546Z,9464
2018-05-08T05:23:58.628Z,9516
2018-05-08T05:24:58.558Z,9564
2018-05-08T05:25:58.551Z,9628
2018-05-08T05:26:58.596Z,9680
2018-05-08T05:27:58.589Z,9744
2018-05-08T05:28:58.559Z,9808
2018-05-08T05:29:58.583Z,9880
2018-05-08T05:30:58.587Z,9980
2018-05-08T05:31:58.524Z,10052
2018-05-08T05:32:58.494Z,10100
2018-05-08T05:33:58.492Z,10144
2018-05-08T05:34:58.473Z,10192
2018-05-08T05:35:58.545Z,10248
2018-05-08T05:36:58.532Z,10288
2018-05-08T05:37:58.458Z,10344
2018-05-08T05:38:58.588Z,10408
2018-05-08T05:39:58.525Z,10460
2018-05-08T05:40:58.526Z,10664
2018-05-08T05:41:58.533Z,17032
2018-05-08T05:42:58.602Z,25120
2018-05-08T05:43:58.534Z,26496
2018-05-08T05:44:58.528Z,26784
2018-05-08T05:45:58.605Z,27264
2018-05-08T05:46:58.536Z,28256
2018-05-08T05:47:58.630Z,28928
2018-05-08T05:48:58.611Z,29824
2018-05-08T05:49:58.535Z,30688
2018-05-08T05:50:58.606Z,31456
2018-05-08T05:51:58.630Z,30624
2018-05-08T05:52:58.570Z,28896
2018-05-08T05:53:58.561Z,26912
2018-05-08T05:54:58.633Z,27168
2018-05-08T05:55:58.647Z,31072
2018-05-08T05:56:58.629Z,34560
2018-05-08T05:57:58.576Z,37344
2018-05-08T05:58:58.585Z,40480
2018-05-08T05:59:58.540Z,42848
2018-05-08T06:00:58.563Z,44000
2018-05-08T06:01:58.584Z,46048
2018-05-08T06:02:58.635Z,49088
2018-05-08T06:03:58.586Z,50112
2018-05-08T06:04:58.549Z,48512
2018-05-08T06:05:58.571Z,41312
2018-05-08T06:06:58.641Z,41664
2018-05-08T06:07:58.579Z,43968
2018-05-08T06:08:58.647Z,43168
2018-05-08T06:09:58.595Z,26208
2018-05-08T06:10:58.646Z,25952
2018-05-08T06:11:58.638Z,25792
2018-05-08T06:12:58.584Z,25888
2018-05-08T06:13:58.584Z,25888
2018-05-08T06:14:58.585Z,30816
2018-05-08T06:15:58.652Z,38368
2018-05-08T06:16:58.542Z,43360
2018-05-08T06:17:58.613Z,46272
2018-05-08T06:18:58.591Z,40704
2018-05-08T06:19:58.526Z,35776
2018-05-08T06:20:58.648Z,38720
2018-05-08T06:21:58.528Z,60416
2018-05-08T06:22:58.525Z,65600
2018-05-08T06:23:58.597Z,61856
2018-05-08T06:24:58.524Z,53280
2018-05-08T06:25:58.592Z,46880
2018-05-08T06:26:58.650Z,64768
2018-05-08T06:27:58.551Z,77856
2018-05-08T06:28:58.595Z,87584
2018-05-08T06:29:58.520Z,80288
2018-05-08T06:30:58.596Z,77696
2018-05-08T06:31:58.608Z,77536
2018-05-08T06:32:58.579Z,71040
2018-05-08T06:33:58.491Z,73280
2018-05-08T06:34:58.561Z,73536
2018-05-08T06:35:58.516Z,71488
2018-05-08T06:36:58.497Z,73024
2018-05-08T06:37:58.530Z,73824
2018-05-08T06:38:58.559Z,75552
2018-05-08T06:39:58.584Z,69920
2018-05-08T06:40:58.510Z,69248
2018-05-08T06:41:58.916Z,66624
2018-05-08T06:42:58.605Z,61888
2018-05-08T06:43:58.661Z,57664
2018-05-08T06:44:58.600Z,53888
2018-05-08T06:45:58.664Z,51616
2018-05-08T06:46:58.601Z,50912
2018-05-08T06:47:58.610Z,51008
2018-05-08T06:48:58.637Z,51552
2018-05-08T06:49:58.614Z,52960
2018-05-08T06:50:58.655Z,80992
2018-05-08T06:51:58.675Z,76672
2018-05-08T06:52:58.670Z,95232
2018-05-08T06:53:58.546Z,87904
2018-05-08T06:54:58.767Z,119040
2018-05-08T06:55:58.545Z,107712
2018-05-08T06:56:58.546Z,117472
2018-05-08T06:57:58.679Z,104672
2018-05-08T06:58:58.679Z,95424
2018-05-08T06:59:58.680Z,83968
2018-05-08T07:00:58.623Z,90688
2018-05-08T07:01:58.606Z,103456
2018-05-08T07:02:58.642Z,118016
2018-05-08T07:03:58.549Z,110720
2018-05-08T07:04:58.612Z,85312
2018-05-08T07:05:58.608Z,72896
2018-05-08T07:06:58.611Z,70016
2018-05-08T07:07:58.681Z,72448
2018-05-08T07:08:58.651Z,75520
2018-05-08T07:09:58.629Z,80896
2018-05-08T07:10:58.678Z,87680
2018-05-08T07:11:58.707Z,93056
2018-05-08T07:12:58.675Z,96864
2018-05-08T07:13:58.685Z,97824
2018-05-08T07:14:58.611Z,96768
2018-05-08T07:15:58.709Z,93888
2018-05-08T07:16:58.558Z,91232
2018-05-08T07:17:58.687Z,90496
2018-05-08T07:18:58.679Z,90784
2018-05-08T07:19:58.620Z,90880
2018-05-08T07:20:58.613Z,91264
2018-05-08T07:21:58.658Z,92832
2018-05-08T07:22:58.655Z,95648
2018-05-08T07:23:58.692Z,99424
2018-05-08T07:24:58.622Z,103232
2018-05-08T07:25:58.627Z,105920
2018-05-08T07:26:58.638Z,107264
2018-05-08T07:27:58.661Z,105536
2018-05-08T07:28:58.564Z,102560
2018-05-08T07:29:58.656Z,100000
2018-05-08T07:30:58.664Z,97344
2018-05-08T07:31:58.703Z,95808
2018-05-08T07:32:58.706Z,96288
2018-05-08T07:33:58.711Z,98496
2018-05-08T07:34:58.644Z,101376
2018-05-08T07:35:58.644Z,104160
2018-05-08T07:36:58.627Z,106208
2018-05-08T07:37:58.679Z,108544
2018-05-08T07:38:58.640Z,109536
2018-05-08T07:39:58.633Z,110016
2018-05-08T07:40:58.670Z,111328
2018-05-08T07:41:58.674Z,112448
2018-05-08T07:42:58.610Z,110976
2018-05-08T07:43:58.675Z,109376
2018-05-08T07:44:58.609Z,107520
2018-05-08T07:45:58.671Z,103744
2018-05-08T07:46:58.671Z,100160
2018-05-08T07:47:58.605Z,98752
2018-05-08T07:48:58.613Z,99264
2018-05-08T07:49:58.678Z,101824
2018-05-08T07:50:58.613Z,105312
2018-05-08T07:51:58.541Z,110432
2018-05-08T07:52:58.662Z,115264
2018-05-08T07:53:58.663Z,118080
2018-05-08T07:54:58.602Z,118528
2018-05-08T07:55:58.552Z,118432
2018-05-08T07:56:58.551Z,115136
2018-05-08T07:57:58.605Z,109920
2018-05-08T07:58:58.615Z,104480
2018-05-08T07:59:58.578Z,101920
2018-05-08T08:00:58.559Z,101312
2018-05-08T08:01:58.683Z,102752
2018-05-08T08:02:58.707Z,105184
2018-05-08T08:03:58.648Z,108512
2018-05-08T08:04:58.655Z,111328
2018-05-08T08:05:58.648Z,114400
2018-05-08T08:06:58.730Z,117056
2018-05-08T08:07:58.723Z,118368
2018-05-08T08:08:58.657Z,119584
2018-05-08T08:09:58.658Z,120608
2018-05-08T08:10:58.655Z,121184
2018-05-08T08:11:58.626Z,120160
2018-05-08T08:12:58.673Z,118016
2018-05-08T08:13:58.566Z,114816
2018-05-08T08:14:58.676Z,108800
2018-05-08T08:15:58.552Z,103296
2018-05-08T08:16:58.704Z,101568
2018-05-08T08:17:58.629Z,103712
2018-05-08T08:18:58.561Z,106656
2018-05-08T08:19:58.557Z,110944
2018-05-08T08:20:58.569Z,116512
2018-05-08T08:21:58.699Z,121952
2018-05-08T08:22:58.696Z,125984
2018-05-08T08:23:58.638Z,128384
2018-05-08T08:24:58.700Z,130208
2018-05-08T08:25:58.703Z,131008
2018-05-08T08:26:58.630Z,129664
2018-05-08T08:27:58.696Z,125920
2018-05-08T08:28:58.700Z,120896
2018-05-08T08:29:58.635Z,117600
2018-05-08T08:30:58.636Z,115616
2018-05-08T08:31:58.708Z,115040
2018-05-08T08:32:58.639Z,116896
2018-05-08T08:33:58.779Z,120288
2018-05-08T08:34:58.709Z,124544
2018-05-08T08:35:58.703Z,125216
2018-05-08T08:36:58.641Z,123584
2018-05-08T08:37:58.645Z,122016
2018-05-08T08:38:58.714Z,120576
2018-05-08T08:39:58.713Z,119936
2018-05-08T08:40:58.756Z,121056
2018-05-08T08:41:58.597Z,124576
2018-05-08T08:42:58.610Z,129248
2018-05-08T08:43:58.597Z,133728
2018-05-08T08:44:58.697Z,136480
2018-05-08T08:45:58.711Z,137952
2018-05-08T08:46:58.643Z,139616
2018-05-08T08:47:58.715Z,138688
2018-05-08T08:48:58.600Z,133632
2018-05-08T08:49:58.603Z,128160
2018-05-08T08:50:58.581Z,126112
2018-05-08T08:51:58.647Z,126816
2018-05-08T08:52:58.688Z,129024
2018-05-08T08:53:58.683Z,132032
2018-05-08T08:54:58.623Z,135360
2018-05-08T08:55:58.727Z,139200
2018-05-08T08:56:58.603Z,141696
2018-05-08T08:57:58.602Z,141792
2018-05-08T08:58:58.607Z,141344
2018-05-08T08:59:58.715Z,140416
2018-05-08T09:00:58.605Z,139168
2018-05-08T09:01:58.726Z,138304
2018-05-08T09:02:58.662Z,140000
2018-05-08T09:03:58.807Z,140800
2018-05-08T09:04:58.728Z,139712
2018-05-08T09:05:58.661Z,137952
2018-05-08T09:06:58.656Z,137920
2018-05-08T09:07:58.729Z,141184
2018-05-08T09:08:58.752Z,146272
2018-05-08T09:09:58.712Z,151520
2018-05-08T09:10:58.726Z,152928
2018-05-08T09:11:58.663Z,149920
2018-05-08T09:12:58.768Z,145216
2018-05-08T09:13:58.667Z,140192
2018-05-08T09:14:58.730Z,137120
2018-05-08T09:15:58.735Z,138944
2018-05-08T09:16:58.701Z,143424
2018-05-08T09:17:58.763Z,150624
2018-05-08T09:18:58.671Z,156576
2018-05-08T09:19:58.670Z,159232
2018-05-08T09:20:58.735Z,155520
2018-05-08T09:21:58.729Z,146880
2018-05-08T09:22:58.679Z,136512
2018-05-08T09:23:58.725Z,129312
2018-05-08T09:24:58.806Z,126720
2018-05-08T09:25:58.730Z,129792
2018-05-08T09:26:58.629Z,135904
2018-05-08T09:27:58.761Z,141664
2018-05-08T09:28:58.629Z,140480
2018-05-08T09:29:58.744Z,133696
2018-05-08T09:30:58.729Z,125824
2018-05-08T09:31:58.677Z,119104
2018-05-08T09:32:58.703Z,117856
2018-05-08T09:33:58.735Z,121696
2018-05-08T09:34:58.633Z,130464
2018-05-08T09:35:58.648Z,139744
2018-05-08T09:36:58.629Z,148864
2018-05-08T09:37:58.649Z,157344
2018-05-08T09:38:58.698Z,164224
2018-05-08T09:39:58.615Z,167648
2018-05-08T09:40:58.746Z,167648
2018-05-08T09:41:58.673Z,162976
2018-05-08T09:42:58.617Z,156896
2018-05-08T09:43:58.732Z,149696
2018-05-08T09:44:58.637Z,141600
2018-05-08T09:45:58.618Z,134976
2018-05-08T09:46:58.618Z,130784
2018-05-08T09:47:58.682Z,128000
2018-05-08T09:48:58.627Z,130816
2018-05-08T09:49:58.624Z,135616
2018-05-08T09:50:58.704Z,140672
2018-05-08T09:51:58.738Z,143680
2018-05-08T09:52:58.651Z,145088
2018-05-08T09:53:58.746Z,148896
2018-05-08T09:54:58.647Z,153152
2018-05-08T09:55:58.684Z,157088
2018-05-08T09:56:58.633Z,160192
2018-05-08T09:57:58.680Z,160480
2018-05-08T09:58:58.680Z,159456
2018-05-08T09:59:58.646Z,156480
2018-05-08T10:00:58.714Z,151168
2018-05-08T10:01:58.731Z,143584
2018-05-08T10:02:58.789Z,140480
2018-05-08T10:03:58.724Z,139360
2018-05-08T10:04:58.667Z,141792
2018-05-08T10:05:58.664Z,145024
2018-05-08T10:06:58.717Z,152864
2018-05-08T10:07:58.676Z,160896
2018-05-08T10:08:58.667Z,164000
2018-05-08T10:09:58.692Z,165184
2018-05-08T10:10:58.745Z,161856
2018-05-08T10:11:58.810Z,152704
2018-05-08T10:12:58.791Z,140480
2018-05-08T10:13:58.733Z,131456
2018-05-08T10:14:58.773Z,129952
2018-05-08T10:15:58.729Z,132736
2018-05-08T10:16:58.775Z,136992
2018-05-08T10:17:58.821Z,145600
2018-05-08T10:18:58.773Z,151904
2018-05-08T10:19:58.775Z,151584
2018-05-08T10:20:58.745Z,148576
2018-05-08T10:21:58.777Z,145120
2018-05-08T10:22:58.709Z,140000
2018-05-08T10:23:58.779Z,135456
2018-05-08T10:24:58.777Z,136768
2018-05-08T10:25:58.709Z,140480
2018-05-08T10:26:58.776Z,144032
2018-05-08T10:27:58.714Z,146368
2018-05-08T10:28:58.860Z,147968
2018-05-08T10:29:58.717Z,148544
2018-05-08T10:30:58.714Z,150624
2018-05-08T10:31:58.786Z,156640
2018-05-08T10:32:58.840Z,165824
2018-05-08T10:33:58.723Z,171360
2018-05-08T10:34:58.677Z,169568
2018-05-08T10:35:58.721Z,162560
2018-05-08T10:36:58.725Z,154624
2018-05-08T10:37:58.683Z,146240
2018-05-08T10:38:58.724Z,142112
2018-05-08T10:39:58.816Z,143744
2018-05-08T10:40:58.784Z,149600
2018-05-08T10:41:58.736Z,157568
2018-05-08T10:42:58.828Z,159872
2018-05-08T10:43:58.753Z,157536
2018-05-08T10:44:58.819Z,154016
2018-05-08T10:45:58.755Z,147776
2018-05-08T10:46:58.822Z,141216
2018-05-08T10:47:58.794Z,138176
2018-05-08T10:48:58.691Z,138848
2018-05-08T10:49:58.700Z,142112
2018-05-08T10:50:58.717Z,146592
2018-05-08T10:51:58.657Z,151328
2018-05-08T10:52:58.667Z,153664
2018-05-08T10:53:58.662Z,155136
2018-05-08T10:54:58.796Z,155488
2018-05-08T10:55:58.796Z,152992
2018-05-08T10:56:58.727Z,150656
2018-05-08T10:57:58.684Z,149312
2018-05-08T10:58:58.785Z,149184
2018-05-08T10:59:58.788Z,153472
2018-05-08T11:00:58.784Z,158304
2018-05-08T11:01:58.802Z,162848
2018-05-08T11:02:58.766Z,165664
2018-05-08T11:03:58.768Z,164832
2018-05-08T11:04:58.707Z,161696
2018-05-08T11:05:58.777Z,155712
2018-05-08T11:06:58.824Z,150816
2018-05-08T11:07:58.771Z,147104
2018-05-08T11:08:58.746Z,147648
2018-05-08T11:09:58.773Z,151520
2018-05-08T11:10:58.715Z,155584
2018-05-08T11:11:58.822Z,158944
2018-05-08T11:12:58.849Z,160416
2018-05-08T11:13:58.711Z,159200
2018-05-08T11:14:58.708Z,155328
2018-05-08T11:15:58.846Z,150720
2018-05-08T11:16:58.747Z,147744
2018-05-08T11:17:58.734Z,146016
2018-05-08T11:18:58.813Z,149600
2018-05-08T11:19:58.781Z,156064
2018-05-08T11:20:58.769Z,163040
2018-05-08T11:21:58.708Z,168256
2018-05-08T11:22:58.716Z,171136
2018-05-08T11:23:58.807Z,166720
2018-05-08T11:24:58.806Z,156864
2018-05-08T11:25:58.707Z,148256
2018-05-08T11:26:58.720Z,143712
2018-05-08T11:27:58.707Z,145312
2018-05-08T11:28:58.686Z,150592
2018-05-08T11:29:58.704Z,157152
2018-05-08T11:30:58.721Z,162464
2018-05-08T11:31:58.758Z,163840
2018-05-08T11:32:58.785Z,158752
2018-05-08T11:33:58.792Z,151360
2018-05-08T11:34:58.778Z,144832
2018-05-08T11:35:58.777Z,140576
2018-05-08T11:36:58.797Z,140800
2018-05-08T11:37:58.763Z,147296
2018-05-08T11:39:58.846Z,165824
2018-05-08T11:40:58.733Z,167808
2018-05-08T11:41:58.747Z,164352
2018-05-08T11:42:58.854Z,157248
2018-05-08T11:43:58.858Z,147904
2018-05-08T11:44:58.791Z,142240
2018-05-08T11:45:58.859Z,140992
2018-05-08T11:46:58.797Z,144416
2018-05-08T11:47:58.795Z,150368
2018-05-08T11:48:58.736Z,154976
2018-05-08T11:49:58.875Z,159136
2018-05-08T11:50:58.871Z,162304
2018-05-08T11:51:58.786Z,162464
2018-05-08T11:52:58.751Z,159904
2018-05-08T11:53:58.824Z,157088
2018-05-08T11:54:58.831Z,157376
2018-05-08T11:55:58.740Z,159584
2018-05-08T11:56:58.765Z,161120
2018-05-08T11:57:58.738Z,160544
2018-05-08T11:58:58.777Z,159296
2018-05-08T11:59:58.737Z,154720
2018-05-08T12:00:58.807Z,148544
2018-05-08T12:01:58.743Z,144992
2018-05-08T12:02:58.839Z,147808
2018-05-08T12:03:58.838Z,154176
2018-05-08T12:04:58.769Z,158976
2018-05-08T12:05:58.839Z,159808
2018-05-08T12:06:58.844Z,155840
2018-05-08T12:07:58.780Z,147968
2018-05-08T12:08:58.818Z,137024
2018-05-08T12:09:58.776Z,127712
2018-05-08T12:10:58.824Z,124416
2018-05-08T12:11:58.781Z,128896
2018-05-08T12:12:58.778Z,139968
2018-05-08T12:13:58.855Z,150880
2018-05-08T12:14:58.778Z,159392
2018-05-08T12:15:58.780Z,159136
2018-05-08T12:16:58.811Z,150592
2018-05-08T12:17:58.827Z,137856
2018-05-08T12:18:58.792Z,125344
2018-05-08T12:19:58.786Z,119648
2018-05-08T12:20:58.861Z,120832
2018-05-08T12:21:58.787Z,125056
2018-05-08T12:22:58.793Z,129856
2018-05-08T12:23:58.821Z,133056
2018-05-08T12:24:58.820Z,135936
2018-05-08T12:25:58.874Z,136000
2018-05-08T12:26:58.813Z,134080
2018-05-08T12:27:58.790Z,130560
2018-05-08T12:28:58.777Z,129632
2018-05-08T12:29:58.758Z,132864
2018-05-08T12:30:58.851Z,138400
2018-05-08T12:31:58.799Z,143456
2018-05-08T12:32:58.893Z,149728
2018-05-08T12:33:58.863Z,155936
2018-05-08T12:34:58.891Z,158176
2018-05-08T12:35:58.781Z,158720
2018-05-08T12:36:58.820Z,157696
2018-05-08T12:37:58.830Z,157888
2018-05-08T12:38:58.895Z,156960
2018-05-08T12:39:58.900Z,154208
2018-05-08T12:40:58.885Z,150976
2018-05-08T12:41:58.923Z,147488
2018-05-08T12:42:58.867Z,138656
2018-05-08T12:43:58.835Z,127616
2018-05-08T12:44:58.892Z,118464
2018-05-08T12:45:58.818Z,116320
2018-05-08T12:46:58.900Z,120288
2018-05-08T12:47:58.909Z,129888
2018-05-08T12:48:58.886Z,141632
2018-05-08T12:49:58.849Z,148768
2018-05-08T12:50:58.870Z,149440
2018-05-08T12:51:58.774Z,139776
2018-05-08T12:52:58.846Z,124864
2018-05-08T12:53:58.905Z,110080
2018-05-08T12:54:58.872Z,103584
2018-05-08T12:55:58.874Z,107328
2018-05-08T12:56:58.908Z,118080
2018-05-08T12:57:58.839Z,127808
2018-05-08T12:58:58.936Z,131296
2018-05-08T12:59:58.907Z,125632
2018-05-08T13:00:58.843Z,117920
2018-05-08T13:01:58.873Z,111872
2018-05-08T13:02:58.851Z,112640
2018-05-08T13:03:58.780Z,119840
2018-05-08T13:04:58.835Z,130240
2018-05-08T13:05:58.787Z,139392
2018-05-08T13:06:58.883Z,146656
2018-05-08T13:07:58.897Z,150336
2018-05-08T13:08:58.846Z,149088
2018-05-08T13:09:58.795Z,145824
2018-05-08T13:10:58.923Z,139264
2018-05-08T13:11:58.822Z,132736
2018-05-08T13:12:58.885Z,126720